sensor_id;sensor_type;location;lat;lon;timestamp;P1;durP1;ratioP1;P2;durP2;ratioP2
86201;SDS011;76853;48.008;20.694;2024-03-08T00:00:54;39.93;;;38.45;;
86201;SDS011;76853;48.008;20.694;2024-03-08T00:01:57;40.55;;;39.03;;
86201;SDS011;76853;48.008;20.694;2024-03-08T00:03:02;39.50;;;38.28;;
86201;SDS011;76853;48.008;20.694;2024-03-08T00:04:08;40.95;;;39.73;;
86201;SDS011;76853;48.008;20.694;2024-03-08T00:05:15;41.90;;;40.45;;
86201;SDS011;76853;48.008;20.694;2024-03-08T00:06:18;41.40;;;39.98;;
86201;SDS011;76853;48.008;20.694;2024-03-08T00:07:22;41.68;;;39.95;;
86201;SDS011;76853;48.008;20.694;2024-03-08T00:08:27;40.62;;;38.97;;
86201;SDS011;76853;48.008;20.694;2024-03-08T00:09:30;40.37;;;38.83;;
86201;SDS011;76853;48.008;20.694;2024-03-08T00:10:34;41.90;;;40.10;;
86201;SDS011;76853;48.008;20.694;2024-03-08T00:11:38;40.67;;;39.10;;
86201;SDS011;76853;48.008;20.694;2024-03-08T00:12:42;41.02;;;39.40;;
86201;SDS011;76853;48.008;20.694;2024-03-08T00:13:52;42.58;;;40.78;;
86201;SDS011;76853;48.008;20.694;2024-03-08T00:14:56;41.27;;;39.63;;
86201;SDS011;76853;48.008;20.694;2024-03-08T00:15:59;40.62;;;39.02;;
86201;SDS011;76853;48.008;20.694;2024-03-08T00:17:03;39.77;;;38.23;;
86201;SDS011;76853;48.008;20.694;2024-03-08T00:18:06;42.27;;;40.40;;
86201;SDS011;76853;48.008;20.694;2024-03-08T00:19:10;42.35;;;40.85;;
86201;SDS011;76853;48.008;20.694;2024-03-08T00:20:14;40.37;;;38.95;;
86201;SDS011;76853;48.008;20.694;2024-03-08T00:21:17;41.80;;;40.00;;
86201;SDS011;76853;48.008;20.694;2024-03-08T00:22:21;42.52;;;40.77;;
86201;SDS011;76853;48.008;20.694;2024-03-08T00:23:26;42.38;;;40.55;;
86201;SDS011;76853;48.008;20.694;2024-03-08T00:24:30;41.97;;;39.85;;
86201;SDS011;76853;48.008;20.694;2024-03-08T00:25:33;41.85;;;40.08;;
86201;SDS011;76853;48.008;20.694;2024-03-08T00:26:37;41.62;;;39.85;;
86201;SDS011;76853;48.008;20.694;2024-03-08T00:27:40;40.87;;;39.60;;
86201;SDS011;76853;48.008;20.694;2024-03-08T00:28:45;40.28;;;38.92;;
86201;SDS011;76853;48.008;20.694;2024-03-08T00:29:49;40.00;;;38.40;;
86201;SDS011;76853;48.008;20.694;2024-03-08T00:30:56;39.78;;;37.90;;
86201;SDS011;76853;48.008;20.694;2024-03-08T00:31:59;40.80;;;38.97;;
86201;SDS011;76853;48.008;20.694;2024-03-08T00:33:04;40.95;;;39.05;;
86201;SDS011;76853;48.008;20.694;2024-03-08T00:34:08;40.60;;;38.98;;
86201;SDS011;76853;48.008;20.694;2024-03-08T00:35:15;39.17;;;37.65;;
86201;SDS011;76853;48.008;20.694;2024-03-08T00:36:18;38.95;;;37.20;;
86201;SDS011;76853;48.008;20.694;2024-03-08T00:37:24;39.33;;;37.53;;
86201;SDS011;76853;48.008;20.694;2024-03-08T00:38:29;37.98;;;36.67;;
86201;SDS011;76853;48.008;20.694;2024-03-08T00:39:34;38.72;;;37.13;;
86201;SDS011;76853;48.008;20.694;2024-03-08T00:40:38;38.12;;;36.63;;
86201;SDS011;76853;48.008;20.694;2024-03-08T00:41:43;37.77;;;36.60;;
86201;SDS011;76853;48.008;20.694;2024-03-08T00:42:47;37.42;;;36.20;;
86201;SDS011;76853;48.008;20.694;2024-03-08T00:43:50;37.67;;;36.45;;
86201;SDS011;76853;48.008;20.694;2024-03-08T00:44:54;37.53;;;36.08;;
86201;SDS011;76853;48.008;20.694;2024-03-08T00:45:57;38.32;;;36.90;;
86201;SDS011;76853;48.008;20.694;2024-03-08T00:47:01;37.25;;;35.80;;
86201;SDS011;76853;48.008;20.694;2024-03-08T00:48:08;38.80;;;37.03;;
86201;SDS011;76853;48.008;20.694;2024-03-08T00:49:12;38.28;;;36.62;;
86201;SDS011;76853;48.008;20.694;2024-03-08T00:50:15;37.75;;;36.27;;
86201;SDS011;76853;48.008;20.694;2024-03-08T00:51:19;37.82;;;36.38;;
86201;SDS011;76853;48.008;20.694;2024-03-08T00:52:22;37.43;;;36.32;;
86201;SDS011;76853;48.008;20.694;2024-03-08T00:53:29;37.93;;;36.62;;
86201;SDS011;76853;48.008;20.694;2024-03-08T00:54:33;38.75;;;37.27;;
86201;SDS011;76853;48.008;20.694;2024-03-08T00:55:36;38.08;;;36.85;;
86201;SDS011;76853;48.008;20.694;2024-03-08T00:56:40;38.15;;;36.95;;
86201;SDS011;76853;48.008;20.694;2024-03-08T00:57:46;38.83;;;37.20;;
86201;SDS011;76853;48.008;20.694;2024-03-08T00:58:49;39.20;;;37.70;;
86201;SDS011;76853;48.008;20.694;2024-03-08T00:59:53;39.00;;;37.50;;
86201;SDS011;76853;48.008;20.694;2024-03-08T01:00:56;39.03;;;37.42;;
86201;SDS011;76853;48.008;20.694;2024-03-08T01:02:01;38.90;;;37.48;;
86201;SDS011;76853;48.008;20.694;2024-03-08T01:03:05;38.73;;;37.30;;
86201;SDS011;76853;48.008;20.694;2024-03-08T01:04:10;38.23;;;37.00;;
86201;SDS011;76853;48.008;20.694;2024-03-08T01:05:13;38.62;;;37.03;;
86201;SDS011;76853;48.008;20.694;2024-03-08T01:06:17;37.28;;;35.77;;
86201;SDS011;76853;48.008;20.694;2024-03-08T01:07:21;38.83;;;37.37;;
86201;SDS011;76853;48.008;20.694;2024-03-08T01:08:24;37.85;;;36.63;;
86201;SDS011;76853;48.008;20.694;2024-03-08T01:09:28;40.12;;;38.57;;
86201;SDS011;76853;48.008;20.694;2024-03-08T01:10:31;39.62;;;37.95;;
86201;SDS011;76853;48.008;20.694;2024-03-08T01:11:34;38.78;;;37.00;;
86201;SDS011;76853;48.008;20.694;2024-03-08T01:12:40;40.07;;;38.50;;
86201;SDS011;76853;48.008;20.694;2024-03-08T01:13:50;36.95;;;35.75;;
86201;SDS011;76853;48.008;20.694;2024-03-08T01:14:55;38.87;;;37.73;;
86201;SDS011;76853;48.008;20.694;2024-03-08T01:16:00;39.75;;;38.23;;
86201;SDS011;76853;48.008;20.694;2024-03-08T01:17:03;38.93;;;37.45;;
86201;SDS011;76853;48.008;20.694;2024-03-08T01:18:07;40.78;;;39.28;;
86201;SDS011;76853;48.008;20.694;2024-03-08T01:19:12;39.90;;;38.52;;
86201;SDS011;76853;48.008;20.694;2024-03-08T01:20:18;40.38;;;38.85;;
86201;SDS011;76853;48.008;20.694;2024-03-08T01:21:21;39.42;;;37.98;;
86201;SDS011;76853;48.008;20.694;2024-03-08T01:22:25;40.73;;;39.17;;
86201;SDS011;76853;48.008;20.694;2024-03-08T01:23:31;38.57;;;37.15;;
86201;SDS011;76853;48.008;20.694;2024-03-08T01:24:34;39.43;;;37.85;;
86201;SDS011;76853;48.008;20.694;2024-03-08T01:25:38;39.88;;;38.50;;
86201;SDS011;76853;48.008;20.694;2024-03-08T01:26:41;41.03;;;39.32;;
86201;SDS011;76853;48.008;20.694;2024-03-08T01:27:45;39.50;;;38.20;;
86201;SDS011;76853;48.008;20.694;2024-03-08T01:28:49;40.23;;;38.72;;
86201;SDS011;76853;48.008;20.694;2024-03-08T01:29:52;38.65;;;37.08;;
86201;SDS011;76853;48.008;20.694;2024-03-08T01:30:58;38.25;;;36.98;;
86201;SDS011;76853;48.008;20.694;2024-03-08T01:32:02;39.02;;;37.35;;
86201;SDS011;76853;48.008;20.694;2024-03-08T01:33:05;39.62;;;38.02;;
86201;SDS011;76853;48.008;20.694;2024-03-08T01:34:10;40.57;;;39.13;;
86201;SDS011;76853;48.008;20.694;2024-03-08T01:35:13;40.13;;;38.50;;
86201;SDS011;76853;48.008;20.694;2024-03-08T01:36:16;39.38;;;38.07;;
86201;SDS011;76853;48.008;20.694;2024-03-08T01:37:22;38.92;;;37.62;;
86201;SDS011;76853;48.008;20.694;2024-03-08T01:38:25;40.73;;;39.45;;
86201;SDS011;76853;48.008;20.694;2024-03-08T01:39:29;38.42;;;36.90;;
86201;SDS011;76853;48.008;20.694;2024-03-08T01:40:32;39.73;;;38.37;;
86201;SDS011;76853;48.008;20.694;2024-03-08T01:41:35;41.17;;;39.82;;
86201;SDS011;76853;48.008;20.694;2024-03-08T01:42:39;39.98;;;38.45;;
86201;SDS011;76853;48.008;20.694;2024-03-08T01:43:43;38.97;;;37.72;;
86201;SDS011;76853;48.008;20.694;2024-03-08T01:44:47;38.92;;;37.38;;
86201;SDS011;76853;48.008;20.694;2024-03-08T01:45:50;39.42;;;38.00;;
86201;SDS011;76853;48.008;20.694;2024-03-08T01:46:55;39.73;;;38.07;;
86201;SDS011;76853;48.008;20.694;2024-03-08T01:47:59;39.45;;;37.77;;
86201;SDS011;76853;48.008;20.694;2024-03-08T01:49:02;38.63;;;37.13;;
86201;SDS011;76853;48.008;20.694;2024-03-08T01:50:07;37.95;;;36.52;;
86201;SDS011;76853;48.008;20.694;2024-03-08T01:51:11;37.78;;;36.32;;
86201;SDS011;76853;48.008;20.694;2024-03-08T01:52:18;38.13;;;36.85;;
86201;SDS011;76853;48.008;20.694;2024-03-08T01:53:26;36.12;;;35.02;;
86201;SDS011;76853;48.008;20.694;2024-03-08T01:54:31;37.90;;;36.63;;
86201;SDS011;76853;48.008;20.694;2024-03-08T01:55:37;38.20;;;36.98;;
86201;SDS011;76853;48.008;20.694;2024-03-08T01:56:41;39.15;;;37.72;;
86201;SDS011;76853;48.008;20.694;2024-03-08T01:57:45;38.25;;;36.88;;
86201;SDS011;76853;48.008;20.694;2024-03-08T01:58:48;37.80;;;36.68;;
86201;SDS011;76853;48.008;20.694;2024-03-08T01:59:52;37.88;;;36.47;;
86201;SDS011;76853;48.008;20.694;2024-03-08T02:00:58;36.93;;;35.68;;
86201;SDS011;76853;48.008;20.694;2024-03-08T02:02:02;37.68;;;36.45;;
86201;SDS011;76853;48.008;20.694;2024-03-08T02:03:09;36.73;;;35.57;;
86201;SDS011;76853;48.008;20.694;2024-03-08T02:04:13;36.77;;;35.67;;
86201;SDS011;76853;48.008;20.694;2024-03-08T02:05:19;35.75;;;34.63;;
86201;SDS011;76853;48.008;20.694;2024-03-08T02:06:28;36.32;;;35.07;;
86201;SDS011;76853;48.008;20.694;2024-03-08T02:07:32;37.55;;;36.23;;
86201;SDS011;76853;48.008;20.694;2024-03-08T02:08:36;38.18;;;36.78;;
86201;SDS011;76853;48.008;20.694;2024-03-08T02:09:40;37.77;;;36.28;;
86201;SDS011;76853;48.008;20.694;2024-03-08T02:10:44;37.30;;;35.92;;
86201;SDS011;76853;48.008;20.694;2024-03-08T02:11:48;37.28;;;35.88;;
86201;SDS011;76853;48.008;20.694;2024-03-08T02:12:51;36.48;;;35.08;;
86201;SDS011;76853;48.008;20.694;2024-03-08T02:13:55;36.68;;;35.15;;
86201;SDS011;76853;48.008;20.694;2024-03-08T02:14:58;36.00;;;34.78;;
86201;SDS011;76853;48.008;20.694;2024-03-08T02:16:01;36.25;;;34.68;;
86201;SDS011;76853;48.008;20.694;2024-03-08T02:17:05;36.53;;;35.10;;
86201;SDS011;76853;48.008;20.694;2024-03-08T02:18:08;36.75;;;35.57;;
86201;SDS011;76853;48.008;20.694;2024-03-08T02:19:18;36.80;;;35.53;;
86201;SDS011;76853;48.008;20.694;2024-03-08T02:20:22;35.42;;;34.03;;
86201;SDS011;76853;48.008;20.694;2024-03-08T02:21:26;37.23;;;35.65;;
86201;SDS011;76853;48.008;20.694;2024-03-08T02:22:30;37.12;;;35.75;;
86201;SDS011;76853;48.008;20.694;2024-03-08T02:23:37;35.00;;;34.02;;
86201;SDS011;76853;48.008;20.694;2024-03-08T02:24:40;36.65;;;35.30;;
86201;SDS011;76853;48.008;20.694;2024-03-08T02:25:43;36.12;;;34.77;;
86201;SDS011;76853;48.008;20.694;2024-03-08T02:26:47;36.52;;;35.08;;
86201;SDS011;76853;48.008;20.694;2024-03-08T02:27:50;35.47;;;34.03;;
86201;SDS011;76853;48.008;20.694;2024-03-08T02:28:54;35.70;;;34.43;;
86201;SDS011;76853;48.008;20.694;2024-03-08T02:29:57;36.00;;;34.62;;
86201;SDS011;76853;48.008;20.694;2024-03-08T02:31:00;34.97;;;33.37;;
86201;SDS011;76853;48.008;20.694;2024-03-08T02:32:05;35.62;;;34.15;;
86201;SDS011;76853;48.008;20.694;2024-03-08T02:33:09;34.47;;;33.05;;
86201;SDS011;76853;48.008;20.694;2024-03-08T02:34:12;34.52;;;33.23;;
86201;SDS011;76853;48.008;20.694;2024-03-08T02:35:18;35.07;;;33.72;;
86201;SDS011;76853;48.008;20.694;2024-03-08T02:36:21;34.77;;;33.40;;
86201;SDS011;76853;48.008;20.694;2024-03-08T02:37:24;34.87;;;33.50;;
86201;SDS011;76853;48.008;20.694;2024-03-08T02:38:28;33.13;;;31.77;;
86201;SDS011;76853;48.008;20.694;2024-03-08T02:39:31;33.35;;;32.08;;
86201;SDS011;76853;48.008;20.694;2024-03-08T02:40:35;32.53;;;31.58;;
86201;SDS011;76853;48.008;20.694;2024-03-08T02:41:38;34.87;;;33.62;;
86201;SDS011;76853;48.008;20.694;2024-03-08T02:42:41;34.45;;;33.00;;
86201;SDS011;76853;48.008;20.694;2024-03-08T02:43:48;36.15;;;34.65;;
86201;SDS011;76853;48.008;20.694;2024-03-08T02:44:52;34.35;;;32.98;;
86201;SDS011;76853;48.008;20.694;2024-03-08T02:45:56;34.30;;;33.08;;
86201;SDS011;76853;48.008;20.694;2024-03-08T02:47:00;33.87;;;32.53;;
86201;SDS011;76853;48.008;20.694;2024-03-08T02:48:03;34.78;;;33.25;;
86201;SDS011;76853;48.008;20.694;2024-03-08T02:49:09;34.70;;;33.07;;
86201;SDS011;76853;48.008;20.694;2024-03-08T02:50:14;35.67;;;33.88;;
86201;SDS011;76853;48.008;20.694;2024-03-08T02:51:19;35.62;;;33.88;;
86201;SDS011;76853;48.008;20.694;2024-03-08T02:52:23;34.62;;;33.18;;
86201;SDS011;76853;48.008;20.694;2024-03-08T02:53:26;34.43;;;33.02;;
86201;SDS011;76853;48.008;20.694;2024-03-08T02:54:30;34.87;;;33.32;;
86201;SDS011;76853;48.008;20.694;2024-03-08T02:55:33;34.90;;;33.48;;
86201;SDS011;76853;48.008;20.694;2024-03-08T02:56:38;33.42;;;32.07;;
86201;SDS011;76853;48.008;20.694;2024-03-08T02:57:42;32.92;;;31.70;;
86201;SDS011;76853;48.008;20.694;2024-03-08T02:58:47;34.50;;;33.22;;
86201;SDS011;76853;48.008;20.694;2024-03-08T02:59:51;33.20;;;31.87;;
86201;SDS011;76853;48.008;20.694;2024-03-08T03:00:56;33.12;;;31.92;;
86201;SDS011;76853;48.008;20.694;2024-03-08T03:02:00;32.52;;;31.22;;
86201;SDS011;76853;48.008;20.694;2024-03-08T03:03:03;33.27;;;31.62;;
86201;SDS011;76853;48.008;20.694;2024-03-08T03:04:07;33.45;;;31.90;;
86201;SDS011;76853;48.008;20.694;2024-03-08T03:05:11;34.08;;;32.48;;
86201;SDS011;76853;48.008;20.694;2024-03-08T03:06:14;33.17;;;31.77;;
86201;SDS011;76853;48.008;20.694;2024-03-08T03:07:18;32.73;;;31.45;;
86201;SDS011;76853;48.008;20.694;2024-03-08T03:08:22;32.67;;;31.55;;
86201;SDS011;76853;48.008;20.694;2024-03-08T03:09:26;34.48;;;33.13;;
86201;SDS011;76853;48.008;20.694;2024-03-08T03:10:31;32.87;;;31.68;;
86201;SDS011;76853;48.008;20.694;2024-03-08T03:11:34;32.80;;;31.93;;
86201;SDS011;76853;48.008;20.694;2024-03-08T03:12:38;31.88;;;30.72;;
86201;SDS011;76853;48.008;20.694;2024-03-08T03:13:44;32.45;;;31.15;;
86201;SDS011;76853;48.008;20.694;2024-03-08T03:14:51;31.80;;;30.52;;
86201;SDS011;76853;48.008;20.694;2024-03-08T03:15:55;30.50;;;29.37;;
86201;SDS011;76853;48.008;20.694;2024-03-08T03:17:00;31.22;;;30.10;;
86201;SDS011;76853;48.008;20.694;2024-03-08T03:18:05;31.42;;;30.27;;
86201;SDS011;76853;48.008;20.694;2024-03-08T03:19:11;32.15;;;30.52;;
86201;SDS011;76853;48.008;20.694;2024-03-08T03:20:16;31.48;;;29.88;;
86201;SDS011;76853;48.008;20.694;2024-03-08T03:21:28;31.23;;;30.23;;
86201;SDS011;76853;48.008;20.694;2024-03-08T03:22:36;32.38;;;31.18;;
86201;SDS011;76853;48.008;20.694;2024-03-08T03:23:39;31.45;;;30.27;;
86201;SDS011;76853;48.008;20.694;2024-03-08T03:24:44;32.77;;;31.32;;
86201;SDS011;76853;48.008;20.694;2024-03-08T03:25:54;31.25;;;30.13;;
86201;SDS011;76853;48.008;20.694;2024-03-08T03:27:00;31.52;;;30.48;;
86201;SDS011;76853;48.008;20.694;2024-03-08T03:28:03;32.38;;;31.07;;
86201;SDS011;76853;48.008;20.694;2024-03-08T03:29:07;32.30;;;30.80;;
86201;SDS011;76853;48.008;20.694;2024-03-08T03:30:11;32.75;;;31.08;;
86201;SDS011;76853;48.008;20.694;2024-03-08T03:31:25;31.92;;;30.55;;
86201;SDS011;76853;48.008;20.694;2024-03-08T03:32:28;30.33;;;29.18;;
86201;SDS011;76853;48.008;20.694;2024-03-08T03:33:32;29.98;;;29.37;;
86201;SDS011;76853;48.008;20.694;2024-03-08T03:34:37;30.15;;;29.33;;
86201;SDS011;76853;48.008;20.694;2024-03-08T03:35:40;29.60;;;28.68;;
86201;SDS011;76853;48.008;20.694;2024-03-08T03:36:45;31.00;;;29.98;;
86201;SDS011;76853;48.008;20.694;2024-03-08T03:37:50;30.75;;;29.58;;
86201;SDS011;76853;48.008;20.694;2024-03-08T03:39:13;31.50;;;30.50;;
86201;SDS011;76853;48.008;20.694;2024-03-08T03:40:19;32.03;;;30.82;;
86201;SDS011;76853;48.008;20.694;2024-03-08T03:41:23;32.45;;;31.10;;
86201;SDS011;76853;48.008;20.694;2024-03-08T03:42:27;31.23;;;30.02;;
86201;SDS011;76853;48.008;20.694;2024-03-08T03:43:30;32.50;;;31.23;;
86201;SDS011;76853;48.008;20.694;2024-03-08T03:44:33;31.52;;;30.22;;
86201;SDS011;76853;48.008;20.694;2024-03-08T03:45:39;32.15;;;31.05;;
86201;SDS011;76853;48.008;20.694;2024-03-08T03:46:45;31.58;;;30.60;;
86201;SDS011;76853;48.008;20.694;2024-03-08T03:47:48;32.48;;;31.00;;
86201;SDS011;76853;48.008;20.694;2024-03-08T03:48:51;32.05;;;30.70;;
86201;SDS011;76853;48.008;20.694;2024-03-08T03:49:55;33.12;;;31.82;;
86201;SDS011;76853;48.008;20.694;2024-03-08T03:51:04;31.07;;;29.85;;
86201;SDS011;76853;48.008;20.694;2024-03-08T03:52:08;31.65;;;30.43;;
86201;SDS011;76853;48.008;20.694;2024-03-08T03:53:13;31.78;;;30.58;;
86201;SDS011;76853;48.008;20.694;2024-03-08T03:54:17;32.70;;;31.37;;
86201;SDS011;76853;48.008;20.694;2024-03-08T03:55:20;32.42;;;31.15;;
86201;SDS011;76853;48.008;20.694;2024-03-08T03:56:26;32.60;;;31.48;;
86201;SDS011;76853;48.008;20.694;2024-03-08T03:57:31;32.35;;;31.20;;
86201;SDS011;76853;48.008;20.694;2024-03-08T03:58:35;33.67;;;32.27;;
86201;SDS011;76853;48.008;20.694;2024-03-08T03:59:38;34.55;;;32.88;;
86201;SDS011;76853;48.008;20.694;2024-03-08T04:00:43;34.68;;;33.22;;
86201;SDS011;76853;48.008;20.694;2024-03-08T04:01:49;34.53;;;33.25;;
86201;SDS011;76853;48.008;20.694;2024-03-08T04:02:52;35.30;;;34.17;;
86201;SDS011;76853;48.008;20.694;2024-03-08T04:03:56;34.68;;;33.50;;
86201;SDS011;76853;48.008;20.694;2024-03-08T04:04:59;33.58;;;32.37;;
86201;SDS011;76853;48.008;20.694;2024-03-08T04:06:04;32.40;;;31.32;;
86201;SDS011;76853;48.008;20.694;2024-03-08T04:07:07;35.08;;;33.67;;
86201;SDS011;76853;48.008;20.694;2024-03-08T04:08:12;34.97;;;33.35;;
86201;SDS011;76853;48.008;20.694;2024-03-08T04:09:16;32.08;;;30.85;;
86201;SDS011;76853;48.008;20.694;2024-03-08T04:10:23;32.20;;;31.03;;
86201;SDS011;76853;48.008;20.694;2024-03-08T04:11:28;34.03;;;32.65;;
86201;SDS011;76853;48.008;20.694;2024-03-08T04:12:34;34.00;;;32.80;;
86201;SDS011;76853;48.008;20.694;2024-03-08T04:13:55;31.47;;;30.30;;
86201;SDS011;76853;48.008;20.694;2024-03-08T04:14:59;32.02;;;30.93;;
86201;SDS011;76853;48.008;20.694;2024-03-08T04:16:03;31.62;;;30.38;;
86201;SDS011;76853;48.008;20.694;2024-03-08T04:17:10;32.85;;;31.47;;
86201;SDS011;76853;48.008;20.694;2024-03-08T04:18:14;33.12;;;31.58;;
86201;SDS011;76853;48.008;20.694;2024-03-08T04:19:18;31.85;;;30.65;;
86201;SDS011;76853;48.008;20.694;2024-03-08T04:20:24;32.88;;;31.57;;
86201;SDS011;76853;48.008;20.694;2024-03-08T04:21:29;32.63;;;31.50;;
86201;SDS011;76853;48.008;20.694;2024-03-08T04:22:36;32.87;;;31.65;;
86201;SDS011;76853;48.008;20.694;2024-03-08T04:23:39;32.98;;;31.58;;
86201;SDS011;76853;48.008;20.694;2024-03-08T04:24:45;33.65;;;31.87;;
86201;SDS011;76853;48.008;20.694;2024-03-08T04:25:49;32.78;;;31.48;;
86201;SDS011;76853;48.008;20.694;2024-03-08T04:26:53;32.53;;;31.38;;
86201;SDS011;76853;48.008;20.694;2024-03-08T04:27:58;32.43;;;31.58;;
86201;SDS011;76853;48.008;20.694;2024-03-08T04:29:02;33.42;;;32.30;;
86201;SDS011;76853;48.008;20.694;2024-03-08T04:30:06;32.75;;;31.52;;
86201;SDS011;76853;48.008;20.694;2024-03-08T04:31:13;32.05;;;30.92;;
86201;SDS011;76853;48.008;20.694;2024-03-08T04:32:16;31.17;;;30.10;;
86201;SDS011;76853;48.008;20.694;2024-03-08T04:33:20;31.82;;;30.63;;
86201;SDS011;76853;48.008;20.694;2024-03-08T04:34:25;32.65;;;31.35;;
86201;SDS011;76853;48.008;20.694;2024-03-08T04:35:31;31.42;;;30.27;;
86201;SDS011;76853;48.008;20.694;2024-03-08T04:36:35;32.07;;;30.97;;
86201;SDS011;76853;48.008;20.694;2024-03-08T04:37:38;30.78;;;29.73;;
86201;SDS011;76853;48.008;20.694;2024-03-08T04:38:42;33.62;;;32.42;;
86201;SDS011;76853;48.008;20.694;2024-03-08T04:39:45;32.83;;;31.85;;
86201;SDS011;76853;48.008;20.694;2024-03-08T04:40:49;32.92;;;31.80;;
86201;SDS011;76853;48.008;20.694;2024-03-08T04:41:54;32.07;;;30.72;;
86201;SDS011;76853;48.008;20.694;2024-03-08T04:43:14;31.92;;;30.48;;
86201;SDS011;76853;48.008;20.694;2024-03-08T04:44:18;33.13;;;31.82;;
86201;SDS011;76853;48.008;20.694;2024-03-08T04:45:21;33.05;;;31.83;;
86201;SDS011;76853;48.008;20.694;2024-03-08T04:46:25;32.07;;;31.03;;
86201;SDS011;76853;48.008;20.694;2024-03-08T04:47:31;31.25;;;30.78;;
86201;SDS011;76853;48.008;20.694;2024-03-08T04:48:35;31.30;;;30.47;;
86201;SDS011;76853;48.008;20.694;2024-03-08T04:49:40;33.17;;;31.85;;
86201;SDS011;76853;48.008;20.694;2024-03-08T04:50:45;33.48;;;32.25;;
86201;SDS011;76853;48.008;20.694;2024-03-08T04:51:48;32.95;;;31.67;;
86201;SDS011;76853;48.008;20.694;2024-03-08T04:52:52;33.55;;;32.10;;
86201;SDS011;76853;48.008;20.694;2024-03-08T04:53:55;33.87;;;32.45;;
86201;SDS011;76853;48.008;20.694;2024-03-08T04:55:00;33.13;;;31.82;;
86201;SDS011;76853;48.008;20.694;2024-03-08T04:56:04;31.57;;;30.33;;
86201;SDS011;76853;48.008;20.694;2024-03-08T04:57:09;32.25;;;30.92;;
86201;SDS011;76853;48.008;20.694;2024-03-08T04:58:14;32.80;;;31.58;;
86201;SDS011;76853;48.008;20.694;2024-03-08T04:59:17;32.82;;;31.92;;
86201;SDS011;76853;48.008;20.694;2024-03-08T05:00:21;33.98;;;32.63;;
86201;SDS011;76853;48.008;20.694;2024-03-08T05:01:25;32.68;;;31.38;;
86201;SDS011;76853;48.008;20.694;2024-03-08T05:02:29;32.77;;;31.48;;
86201;SDS011;76853;48.008;20.694;2024-03-08T05:03:32;33.88;;;32.60;;
86201;SDS011;76853;48.008;20.694;2024-03-08T05:04:35;33.62;;;32.38;;
86201;SDS011;76853;48.008;20.694;2024-03-08T05:05:38;33.30;;;31.97;;
86201;SDS011;76853;48.008;20.694;2024-03-08T05:06:42;33.57;;;32.22;;
86201;SDS011;76853;48.008;20.694;2024-03-08T05:07:45;33.80;;;32.38;;
86201;SDS011;76853;48.008;20.694;2024-03-08T05:08:48;33.40;;;32.17;;
86201;SDS011;76853;48.008;20.694;2024-03-08T05:09:52;33.53;;;31.88;;
86201;SDS011;76853;48.008;20.694;2024-03-08T05:10:58;33.27;;;31.90;;
86201;SDS011;76853;48.008;20.694;2024-03-08T05:12:03;32.43;;;31.47;;
86201;SDS011;76853;48.008;20.694;2024-03-08T05:13:07;32.83;;;31.47;;
86201;SDS011;76853;48.008;20.694;2024-03-08T05:14:10;32.68;;;31.32;;
86201;SDS011;76853;48.008;20.694;2024-03-08T05:15:19;33.93;;;32.30;;
86201;SDS011;76853;48.008;20.694;2024-03-08T05:16:24;32.72;;;31.25;;
86201;SDS011;76853;48.008;20.694;2024-03-08T05:17:27;32.73;;;31.47;;
86201;SDS011;76853;48.008;20.694;2024-03-08T05:18:31;31.92;;;30.98;;
86201;SDS011;76853;48.008;20.694;2024-03-08T05:19:35;32.62;;;31.70;;
86201;SDS011;76853;48.008;20.694;2024-03-08T05:20:39;32.13;;;31.05;;
86201;SDS011;76853;48.008;20.694;2024-03-08T05:21:44;31.40;;;30.32;;
86201;SDS011;76853;48.008;20.694;2024-03-08T05:22:49;31.83;;;30.57;;
86201;SDS011;76853;48.008;20.694;2024-03-08T05:23:52;33.80;;;32.08;;
86201;SDS011;76853;48.008;20.694;2024-03-08T05:24:55;32.38;;;30.98;;
86201;SDS011;76853;48.008;20.694;2024-03-08T05:25:59;33.05;;;31.80;;
86201;SDS011;76853;48.008;20.694;2024-03-08T05:27:02;33.32;;;32.00;;
86201;SDS011;76853;48.008;20.694;2024-03-08T05:28:07;34.37;;;32.67;;
86201;SDS011;76853;48.008;20.694;2024-03-08T05:29:11;36.30;;;34.77;;
86201;SDS011;76853;48.008;20.694;2024-03-08T05:30:15;35.12;;;33.83;;
86201;SDS011;76853;48.008;20.694;2024-03-08T05:31:19;35.75;;;34.48;;
86201;SDS011;76853;48.008;20.694;2024-03-08T05:32:27;35.75;;;34.22;;
86201;SDS011;76853;48.008;20.694;2024-03-08T05:33:33;34.20;;;32.90;;
86201;SDS011;76853;48.008;20.694;2024-03-08T05:34:41;33.72;;;32.50;;
86201;SDS011;76853;48.008;20.694;2024-03-08T05:35:44;33.87;;;32.63;;
86201;SDS011;76853;48.008;20.694;2024-03-08T05:36:49;32.97;;;31.83;;
86201;SDS011;76853;48.008;20.694;2024-03-08T05:37:53;32.95;;;31.72;;
86201;SDS011;76853;48.008;20.694;2024-03-08T05:38:57;33.48;;;31.98;;
86201;SDS011;76853;48.008;20.694;2024-03-08T05:40:01;33.33;;;31.73;;
86201;SDS011;76853;48.008;20.694;2024-03-08T05:41:06;32.95;;;31.68;;
86201;SDS011;76853;48.008;20.694;2024-03-08T05:42:10;32.37;;;31.18;;
86201;SDS011;76853;48.008;20.694;2024-03-08T05:43:15;32.47;;;31.13;;
86201;SDS011;76853;48.008;20.694;2024-03-08T05:44:22;31.93;;;30.47;;
86201;SDS011;76853;48.008;20.694;2024-03-08T05:45:26;32.43;;;31.22;;
86201;SDS011;76853;48.008;20.694;2024-03-08T05:46:30;33.07;;;31.45;;
86201;SDS011;76853;48.008;20.694;2024-03-08T05:47:34;31.58;;;30.12;;
86201;SDS011;76853;48.008;20.694;2024-03-08T05:48:38;31.73;;;30.45;;
86201;SDS011;76853;48.008;20.694;2024-03-08T05:49:41;31.40;;;30.32;;
86201;SDS011;76853;48.008;20.694;2024-03-08T05:50:47;32.42;;;31.23;;
86201;SDS011;76853;48.008;20.694;2024-03-08T05:51:55;32.50;;;31.20;;
86201;SDS011;76853;48.008;20.694;2024-03-08T05:52:59;32.55;;;31.45;;
86201;SDS011;76853;48.008;20.694;2024-03-08T05:54:06;33.23;;;32.03;;
86201;SDS011;76853;48.008;20.694;2024-03-08T05:55:18;31.12;;;29.87;;
86201;SDS011;76853;48.008;20.694;2024-03-08T05:56:21;31.72;;;30.78;;
86201;SDS011;76853;48.008;20.694;2024-03-08T05:57:25;31.33;;;30.33;;
86201;SDS011;76853;48.008;20.694;2024-03-08T05:58:31;31.73;;;30.50;;
86201;SDS011;76853;48.008;20.694;2024-03-08T05:59:35;32.00;;;30.65;;
86201;SDS011;76853;48.008;20.694;2024-03-08T06:00:39;31.77;;;30.55;;
86201;SDS011;76853;48.008;20.694;2024-03-08T06:01:42;31.30;;;30.05;;
86201;SDS011;76853;48.008;20.694;2024-03-08T06:02:48;31.93;;;30.57;;
86201;SDS011;76853;48.008;20.694;2024-03-08T06:03:52;32.58;;;31.18;;
86201;SDS011;76853;48.008;20.694;2024-03-08T06:04:59;31.33;;;30.30;;
86201;SDS011;76853;48.008;20.694;2024-03-08T06:06:05;32.08;;;31.00;;
86201;SDS011;76853;48.008;20.694;2024-03-08T06:07:09;31.37;;;30.22;;
86201;SDS011;76853;48.008;20.694;2024-03-08T06:08:15;31.02;;;29.70;;
86201;SDS011;76853;48.008;20.694;2024-03-08T06:09:19;31.73;;;30.22;;
86201;SDS011;76853;48.008;20.694;2024-03-08T06:10:27;32.03;;;30.97;;
86201;SDS011;76853;48.008;20.694;2024-03-08T06:11:31;31.08;;;30.05;;
86201;SDS011;76853;48.008;20.694;2024-03-08T06:12:36;30.05;;;29.03;;